Time;durP1;ratioP1;P1;durP2;ratioP2;P2;SDS_P1;SDS_P2;PMS_P1;PMS_P2;Temp;Humidity;BMP_temperature;BMP_pressure;BME280_temperature;BME280_humidity;BME280_pressure;Samples;Min_cycle;Max_cycle;Signal;HPM_P1;HPM_P2
2023/08/15 00:00:54;;;;;;;12.17;3.43;;;;;;;19.24;100.00;156268.78;5042394;28;20025;-69
2023/08/15 00:03:20;;;;;;;13.10;3.03;;;;;;;19.22;100.00;156263.59;5047715;28;20018;-69
2023/08/15 00:05:45;;;;;;;13.43;3.33;;;;;;;19.28;100.00;156279.22;5044023;28;20033;-70
2023/08/15 00:08:10;;;;;;;12.73;2.90;;;;;;;19.19;100.00;156255.72;5043624;28;20021;-69
2023/08/15 00:10:36;;;;;;;11.00;3.53;;;;;;;19.19;100.00;156257.03;5048682;28;20136;-70
2023/08/15 00:13:03;;;;;;;9.37;2.87;;;;;;;19.15;100.00;156246.59;5045751;28;20035;-69
2023/08/15 00:15:30;;;;;;;9.02;2.65;;;;;;;19.20;100.00;156259.63;5041331;28;20032;-70
2023/08/15 00:17:56;;;;;;;11.80;2.80;;;;;;;19.19;100.00;156255.72;5047155;28;20035;-70
2023/08/15 00:20:21;;;;;;;14.37;3.20;;;;;;;19.19;100.00;156255.72;5044030;28;20108;-69
2023/08/15 00:22:47;;;;;;;10.80;2.73;;;;;;;19.21;100.00;156260.94;5046751;28;20025;-69
2023/08/15 00:25:12;;;;;;;12.27;2.37;;;;;;;19.21;100.00;156260.94;5048983;28;20071;-69
2023/08/15 00:27:38;;;;;;;16.57;2.87;;;;;;;19.19;100.00;156255.72;5045285;28;20031;-70
2023/08/15 00:30:04;;;;;;;13.17;3.10;;;;;;;19.25;100.00;156271.41;5040526;28;20028;-70
2023/08/15 00:32:35;;;;;;;9.40;2.50;;;;;;;19.19;100.00;156255.72;5048298;28;20464;-70
2023/08/15 00:35:01;;;;;;;14.30;3.13;;;;;;;19.22;100.00;156263.59;5045275;28;20039;-70
2023/08/15 00:37:27;;;;;;;19.50;3.17;;;;;;;19.22;100.00;156263.59;5042755;28;20040;-69
2023/08/15 00:39:53;;;;;;;13.35;2.85;;;;;;;19.19;100.00;156257.03;5019783;28;20087;-70
2023/08/15 00:42:18;;;;;;;16.70;2.97;;;;;;;19.20;100.00;156258.34;5047092;28;20052;-69
2023/08/15 00:44:43;;;;;;;15.40;3.47;;;;;;;19.25;100.00;156271.41;5039632;28;20079;-70
2023/08/15 00:47:11;;;;;;;7.00;2.57;;;;;;;19.27;100.00;156277.91;5043359;28;20029;-69
2023/08/15 00:49:36;;;;;;;13.05;3.22;;;;;;;19.22;100.00;156264.88;5047907;28;20465;-69
2023/08/15 00:52:03;;;;;;;12.67;2.90;;;;;;;19.15;100.00;156245.31;5044205;28;20068;-69
2023/08/15 00:54:29;;;;;;;12.48;3.80;;;;;;;19.14;100.00;156244.00;5051088;28;20036;-70
2023/08/15 00:56:55;;;;;;;11.00;2.70;;;;;;;19.25;100.00;156271.41;5042773;28;20033;-69
2023/08/15 00:59:20;;;;;;;15.47;3.00;;;;;;;19.19;100.00;156257.03;5028102;28;20507;-70
2023/08/15 01:01:46;;;;;;;10.63;2.57;;;;;;;19.19;100.00;156257.03;5046692;28;20029;-73
2023/08/15 01:04:13;;;;;;;11.83;2.73;;;;;;;19.25;100.00;156271.41;5044866;28;20029;-73
2023/08/15 01:06:38;;;;;;;;;;;;;;;19.30;100.00;156284.44;5042735;28;20036;-73
2023/08/15 01:09:04;;;;;;;10.88;2.78;;;;;;;19.30;100.00;156285.75;5043792;28;20288;-72
2023/08/15 01:11:43;;;;;;;18.08;3.60;;;;;;;19.34;100.00;156294.88;5045806;28;20028;-72
2023/08/15 01:14:14;;;;;;;13.35;3.05;;;;;;;19.30;100.00;156284.44;5048682;28;20546;-72
2023/08/15 01:16:44;;;;;;;11.07;3.20;;;;;;;19.26;100.00;156275.31;5045491;28;20481;-73
2023/08/15 01:19:27;;;;;;;13.68;3.10;;;;;;;19.20;100.00;156258.34;5028596;28;20036;-73
2023/08/15 01:21:55;;;;;;;11.98;3.58;;;;;;;19.20;100.00;156259.63;5049794;28;20385;-73
2023/08/15 01:24:21;;;;;;;13.57;3.40;;;;;;;19.15;100.00;156245.31;5049032;28;20025;-73
2023/08/15 01:26:46;;;;;;;23.90;4.15;;;;;;;19.21;100.00;156262.28;5047574;28;20472;-73
2023/08/15 01:29:12;;;;;;;11.37;2.67;;;;;;;19.13;100.00;156241.41;5048316;28;20471;-73
2023/08/15 01:31:46;;;;;;;11.27;2.90;;;;;;;19.02;100.00;156212.72;5049122;28;20021;-73
2023/08/15 01:34:30;;;;;;;13.57;2.90;;;;;;;19.02;100.00;156212.72;5048951;28;20159;-73
2023/08/15 01:37:02;;;;;;;16.83;3.33;;;;;;;19.01;100.00;156210.13;5034151;28;20536;-73
2023/08/15 01:39:29;;;;;;;15.10;3.03;;;;;;;18.94;100.00;156191.84;5043775;28;20107;-73
2023/08/15 01:41:57;;;;;;;17.63;4.68;;;;;;;18.99;100.00;156204.88;5050274;28;20049;-73
2023/08/15 01:44:24;;;;;;;18.55;4.47;;;;;;;18.94;100.00;156190.59;5031375;28;20044;-72
2023/08/15 01:46:50;;;;;;;14.40;3.20;;;;;;;18.89;100.00;156178.81;5028965;28;20029;-73
2023/08/15 01:49:15;;;;;;;16.00;3.50;;;;;;;18.87;100.00;156172.31;5046646;28;20538;-73
2023/08/15 01:51:41;;;;;;;15.20;3.10;;;;;;;18.84;100.00;156164.50;5048294;28;20535;-73
2023/08/15 01:54:06;;;;;;;10.67;3.20;;;;;;;18.81;100.00;156156.66;5030502;28;20086;-73
2023/08/15 01:56:32;;;;;;;14.40;3.17;;;;;;;18.82;100.00;148553.03;5023102;28;20033;-73
2023/08/15 01:58:57;;;;;;;10.93;3.20;;;;;;;18.80;100.00;145728.03;5026325;28;20152;-73
2023/08/15 02:01:22;;;;;;;15.97;3.07;;;;;;;18.76;100.00;143204.75;5049952;28;20025;-72
2023/08/15 02:03:48;;;;;;;18.40;3.27;;;;;;;18.89;100.00;135701.56;5047019;28;20037;-73
2023/08/15 02:06:14;;;;;;;16.17;3.67;;;;;;;18.87;100.00;133189.13;5029355;28;20380;-73
2023/08/15 02:08:39;;;;;;;15.40;2.83;;;;;;;18.83;100.00;129242.66;5048002;28;20040;-73
2023/08/15 02:11:05;;;;;;;11.07;3.10;;;;;;;18.75;100.00;123148.22;5046257;28;20365;-73
2023/08/15 02:13:32;;;;;;;15.47;3.53;;;;;;;18.74;100.00;120646.47;5047999;28;20029;-71
2023/08/15 02:15:58;;;;;;;13.32;2.53;;;;;;;18.70;100.00;116357.03;5047576;28;20029;-70
2023/08/15 02:18:26;;;;;;;15.93;3.10;;;;;;;18.63;100.00;112779.47;5048589;28;20051;-70
2023/08/15 02:20:51;;;;;;;10.15;2.55;;;;;;;18.63;100.00;106017.34;5031025;28;20057;-71
2023/08/15 02:23:17;;;;;;;11.20;3.00;;;;;;;18.64;100.00;102818.59;5044684;28;20127;-70
2023/08/15 02:25:43;;;;;;;18.93;2.97;;;;;;;18.66;100.00;96784.88;5031001;28;20066;-70
2023/08/15 02:28:08;;;;;;;12.95;2.63;;;;;;;18.63;100.00;94297.69;5047519;28;20110;-70
2023/08/15 02:30:37;;;;;;;14.10;3.37;;;;;;;18.59;100.00;91454.81;5043881;28;20078;-70
2023/08/15 02:33:06;;;;;;;20.38;4.10;;;;;;;18.60;100.00;87915.06;5046413;28;20028;-71
2023/08/15 02:35:32;;;;;;;16.48;4.60;;;;;;;18.63;100.00;82257.66;5027380;28;20056;-70
2023/08/15 02:37:57;;;;;;;11.83;3.47;;;;;;;18.67;100.00;76256.66;5042883;28;20021;-68
2023/08/15 02:40:29;;;;;;;15.53;3.63;;;;;;;18.67;100.00;73786.59;5028693;28;20056;-70
2023/08/15 02:42:54;;;;;;;17.80;3.28;;;;;;;18.74;100.00;73089.53;5049856;28;20050;-68
2023/08/15 02:45:20;;;;;;;18.80;4.23;;;;;;;18.79;100.00;71683.91;5045841;28;20087;-69
2023/08/15 02:47:46;;;;;;;17.77;3.90;;;;;;;18.74;100.00;70267.94;5045703;28;20384;-70
2023/08/15 02:50:12;;;;;;;10.57;3.40;;;;;;;18.67;100.00;66735.34;5047659;28;20029;-68
2023/08/15 02:52:37;;;;;;;17.63;3.67;;;;;;;18.69;100.00;65329.47;5047577;28;20091;-70
2023/08/15 02:55:03;;;;;;;16.87;3.80;;;;;;;18.68;100.00;63568.22;5048119;28;20436;-69
2023/08/15 02:57:29;;;;;;;13.05;3.30;;;;;;;18.63;100.00;62155.44;5046591;28;20429;-72
2023/08/15 02:59:54;;;;;;;13.43;3.10;;;;;;;18.64;100.00;58639.53;5048650;28;20033;-73
2023/08/15 03:02:20;;;;;;;33.73;4.73;;;;;;;18.55;100.00;55117.84;5047090;28;20483;-73
2023/08/15 03:04:45;;;;;;;11.77;3.33;;;;;;;18.49;100.00;51252.59;5042540;28;20040;-73
2023/08/15 03:07:11;;;;;;;12.57;3.47;;;;;;;18.54;100.00;45998.31;5047688;28;20053;-73
2023/08/15 03:09:36;;;;;;;15.67;3.07;;;;;;;18.48;100.00;43542.47;5046523;28;20631;-73
2023/08/15 03:12:02;;;;;;;14.17;3.40;;;;;;;18.49;100.00;40394.25;5048496;28;20036;-69
2023/08/15 03:14:29;;;;;;;15.07;3.88;;;;;;;18.45;100.00;38642.72;5045624;28;20624;-69
2023/08/15 03:16:54;;;;;;;;;;;;;;;18.39;100.00;35493.88;5031623;28;20507;-69
2023/08/15 03:19:20;;;;;;;13.57;3.85;;;;;;;18.37;100.00;31652.47;5030854;28;19913;-68
2023/08/15 03:21:45;;;;;;;18.73;4.00;;;;;;;18.38;100.00;29211.16;5047256;28;20025;-73
2023/08/15 03:24:11;;;;;;;12.97;3.20;;;;;;;18.38;100.00;26770.84;5025110;28;20083;-73
2023/08/15 03:26:36;;;;;;;10.80;3.23;;;;;;;18.39;100.00;26074.59;5044286;28;20043;-72
2023/08/15 03:29:02;;;;;;;15.13;4.83;;;;;;;18.38;100.00;26770.84;5044432;28;20033;-73
2023/08/15 03:31:27;;;;;;;19.33;4.10;;;;;;;18.37;100.00;26770.63;5047094;28;20021;-72
2023/08/15 03:33:53;;;;;;;11.50;3.53;;;;;;;18.33;100.00;28162.94;5033024;28;20113;-73
2023/08/15 03:36:18;;;;;;;20.10;4.57;;;;;;;18.30;100.00;28161.47;5045178;28;20032;-73
2023/08/15 03:38:44;;;;;;;15.60;3.70;;;;;;;18.21;100.00;28853.94;5047227;28;20033;-73
2023/08/15 03:41:09;;;;;;;15.83;4.03;;;;;;;18.25;100.00;26764.78;5028166;28;20492;-73
2023/08/15 03:43:35;;;;;;;13.00;3.73;;;;;;;18.25;100.00;26416.38;5040056;28;20056;-73
2023/08/15 03:46:02;;;;;;;17.38;4.25;;;;;;;18.27;100.00;26765.72;5045177;28;20021;-73
2023/08/15 03:48:31;;;;;;;23.77;4.40;;;;;;;18.24;100.00;28506.84;5045499;28;20041;-73
2023/08/15 03:50:57;;;;;;;18.05;3.70;;;;;;;18.20;100.00;28504.88;5046077;28;20111;-73
2023/08/15 03:53:23;;;;;;;19.50;4.05;;;;;;;18.24;100.00;29204.34;5046366;28;20460;-72
2023/08/15 03:55:51;;;;;;;18.17;3.30;;;;;;;18.17;100.00;29549.16;5045419;28;20037;-73
2023/08/15 03:58:18;;;;;;;18.88;5.15;;;;;;;18.17;100.00;29200.53;5047011;28;20100;-72
2023/08/15 04:00:44;;;;;;;16.50;4.07;;;;;;;18.08;100.00;28847.69;5040540;28;20037;-73
2023/08/15 04:03:10;;;;;;;22.65;3.92;;;;;;;18.00;100.00;27449.78;5047026;28;20095;-73
2023/08/15 04:05:35;;;;;;;20.57;4.33;;;;;;;18.07;100.00;27453.09;5043448;28;20029;-73
2023/08/15 04:08:02;;;;;;;12.40;3.73;;;;;;;18.09;100.00;27454.06;5045519;28;20032;-73
2023/08/15 04:10:28;;;;;;;16.50;4.45;;;;;;;18.06;100.00;28149.47;5045767;28;20021;-72
2023/08/15 04:12:53;;;;;;;15.27;4.33;;;;;;;18.06;100.00;28497.94;5043485;28;20029;-72
2023/08/15 04:15:19;;;;;;;10.70;3.50;;;;;;;17.99;100.00;29191.69;5042632;28;20559;-73
2023/08/15 04:17:44;;;;;;;16.63;4.03;;;;;;;18.02;100.00;28844.69;5048423;28;20028;-73
2023/08/15 04:20:12;;;;;;;20.43;3.97;;;;;;;18.06;100.00;30938.06;5045530;28;20029;-73
2023/08/15 04:22:38;;;;;;;21.88;3.80;;;;;;;18.01;100.00;31284.09;5045768;28;20531;-73
2023/08/15 04:25:06;;;;;;;25.63;5.73;;;;;;;18.07;100.00;31287.34;5025503;28;20125;-73
2023/08/15 04:27:31;;;;;;;18.42;3.85;;;;;;;18.02;100.00;32330.91;5046906;28;20387;-73
2023/08/15 04:29:57;;;;;;;18.10;4.37;;;;;;;18.05;100.00;32681.41;5026255;28;20028;-73
2023/08/15 04:32:22;;;;;;;16.93;4.00;;;;;;;18.09;100.00;34428.41;5045135;28;20426;-70
2023/08/15 04:34:48;;;;;;;15.13;3.90;;;;;;;18.01;100.00;35471.06;5041992;28;20060;-70
2023/08/15 04:37:13;;;;;;;22.10;5.07;;;;;;;18.00;100.00;35121.09;5046497;28;20031;-69
2023/08/15 04:39:38;;;;;;;23.67;5.33;;;;;;;18.01;100.00;34772.97;5045557;28;20048;-69
2023/08/15 04:42:04;;;;;;;17.50;4.83;;;;;;;17.99;100.00;32678.31;5046329;28;20049;-69
2023/08/15 04:44:29;;;;;;;23.67;4.43;;;;;;;18.00;100.00;31981.00;5028268;28;20029;-70
2023/08/15 04:46:55;;;;;;;18.47;3.77;;;;;;;18.02;100.00;32330.91;5031158;28;20033;-69
2023/08/15 04:49:20;;;;;;;16.57;4.13;;;;;;;18.03;100.00;32680.28;5043901;28;20036;-69
2023/08/15 04:51:46;;;;;;;14.53;3.80;;;;;;;18.00;100.00;33027.44;5043859;28;20032;-69
2023/08/15 04:54:11;;;;;;;15.83;5.03;;;;;;;18.04;100.00;31983.50;5044608;28;20044;-69
2023/08/15 04:56:36;;;;;;;11.37;3.77;;;;;;;18.07;100.00;32682.53;5025915;28;20036;-69
2023/08/15 04:59:02;;;;;;;12.87;4.00;;;;;;;18.04;100.00;32681.13;5029767;28;20048;-70
2023/08/15 05:01:28;;;;;;;21.07;4.73;;;;;;;18.03;100.00;33378.03;5044576;28;20479;-69
2023/08/15 05:03:53;;;;;;;21.03;3.90;;;;;;;18.10;100.00;33382.31;5027880;28;20029;-70
2023/08/15 05:06:19;;;;;;;21.87;5.13;;;;;;;18.15;100.00;34082.91;5046598;28;20056;-70
2023/08/15 05:08:44;;;;;;;10.43;4.10;;;;;;;18.17;100.00;35131.34;5026647;28;20281;-69
2023/08/15 05:11:10;;;;;;;16.23;4.13;;;;;;;18.13;100.00;37224.47;5032757;28;20045;-69
2023/08/15 05:13:36;;;;;;;17.23;4.10;;;;;;;18.18;100.00;37926.06;5041893;28;20022;-69
2023/08/15 05:16:01;;;;;;;17.80;4.43;;;;;;;18.19;100.00;38276.13;5047491;28;20029;-69
2023/08/15 05:18:26;;;;;;;17.40;5.60;;;;;;;18.25;100.00;40727.03;5043323;28;20041;-69
2023/08/15 05:20:52;;;;;;;15.47;3.80;;;;;;;18.44;100.00;41090.03;5046433;28;20045;-69
2023/08/15 05:23:17;;;;;;;16.60;4.73;;;;;;;18.54;100.00;47049.81;5043758;28;20038;-71
2023/08/15 05:25:43;;;;;;;14.30;4.17;;;;;;;18.70;100.00;49516.38;5025014;28;20052;-69
2023/08/15 05:28:10;;;;;;;19.70;4.65;;;;;;;18.82;100.00;53738.53;5044471;28;20044;-69
2023/08/15 05:30:39;;;;;;;18.77;4.25;;;;;;;18.91;100.00;59721.25;5047713;28;20460;-69
2023/08/15 05:33:05;;;;;;;24.27;5.35;;;;;;;19.05;100.00;65368.41;5044492;28;20111;-69
2023/08/15 05:35:31;;;;;;;17.08;4.90;;;;;;;19.12;100.00;72783.06;5021275;28;20124;-71
2023/08/15 05:37:56;;;;;;;17.48;3.60;;;;;;;19.19;100.00;77029.84;5042745;28;20021;-70
2023/08/15 05:40:22;;;;;;;11.57;3.57;;;;;;;19.21;100.00;82691.44;5022344;28;20388;-71
2023/08/15 05:42:47;;;;;;;14.10;3.33;;;;;;;19.18;100.00;84457.25;5043661;28;20045;-72
2023/08/15 05:45:13;;;;;;;14.83;4.47;;;;;;;19.17;100.00;83040.53;5045110;28;20029;-72
2023/08/15 05:47:39;;;;;;;16.77;3.80;;;;;;;19.22;100.00;85525.38;5042495;28;20033;-73
2023/08/15 05:50:05;;;;;;;19.17;4.10;;;;;;;19.21;100.00;89421.84;5046599;28;20041;-73
2023/08/15 05:52:30;;;;;;;15.77;4.33;;;;;;;19.27;100.00;94042.81;5043628;28;20415;-73
2023/08/15 05:54:56;;;;;;;26.23;4.97;;;;;;;19.29;100.00;95111.81;5045216;28;20282;-73
2023/08/15 05:57:22;;;;;;;15.40;4.20;;;;;;;19.34;100.00;94763.88;5048056;28;20094;-74
2023/08/15 05:59:48;;;;;;;10.25;4.47;;;;;;;19.32;100.00;98313.69;5040685;28;20611;-73
2023/08/15 06:02:14;;;;;;;14.27;5.33;;;;;;;19.35;100.00;98317.78;5043249;28;20044;-73
2023/08/15 06:04:40;;;;;;;16.58;4.88;;;;;;;19.39;100.00;98680.63;5042164;28;20029;-73
2023/08/15 06:07:06;;;;;;;20.35;4.28;;;;;;;19.42;100.00;99395.72;5028880;28;20029;-73
2023/08/15 06:09:32;;;;;;;23.50;5.03;;;;;;;19.45;100.00;100468.31;5026971;28;20033;-73
2023/08/15 06:11:57;;;;;;;16.07;4.50;;;;;;;19.44;100.00;100822.28;5046128;28;20100;-73
2023/08/15 06:14:23;;;;;;;22.83;4.77;;;;;;;19.45;100.00;99400.69;5045615;28;20653;-73
2023/08/15 06:16:48;;;;;;;13.23;4.37;;;;;;;19.56;100.00;100485.91;5048519;28;20043;-73
2023/08/15 06:19:14;;;;;;;14.70;4.13;;;;;;;19.56;100.00;106181.09;5044152;28;20376;-73
2023/08/15 06:21:42;;;;;;;16.13;4.70;;;;;;;19.62;100.00;110112.22;5047275;28;20385;-73
2023/08/15 06:24:09;;;;;;;17.08;4.28;;;;;;;19.63;100.00;120469.16;5044829;28;20103;-73
2023/08/15 06:26:35;;;;;;;19.85;4.35;;;;;;;19.71;100.00;126209.91;5047382;28;20031;-74
2023/08/15 06:29:00;;;;;;;13.37;4.07;;;;;;;19.66;100.00;124767.59;5049032;28;20407;-73
2023/08/15 06:31:26;;;;;;;15.93;4.27;;;;;;;19.80;100.00;128736.22;5039597;28;20032;-72
2023/08/15 06:33:51;;;;;;;14.47;4.60;;;;;;;19.77;100.00;133389.16;5022153;28;20021;-73
2023/08/15 06:36:16;;;;;;;15.57;4.23;;;;;;;19.84;100.00;137711.88;5043769;28;20052;-73
2023/08/15 06:38:42;;;;;;;18.10;4.07;;;;;;;19.98;100.00;140978.03;5046789;28;20074;-74
2023/08/15 06:41:07;;;;;;;15.90;3.40;;;;;;;19.97;100.00;149392.56;5047800;28;20032;-74
2023/08/15 06:43:33;;;;;;;11.77;3.37;;;;;;;20.12;100.00;155562.34;5028261;28;20135;-72
2023/08/15 06:45:58;;;;;;;14.03;4.10;;;;;;;20.11;100.00;156495.75;5045555;28;20033;-73
2023/08/15 06:48:23;;;;;;;15.53;3.83;;;;;;;20.21;100.00;156523.09;5046540;28;20068;-73
2023/08/15 06:50:49;;;;;;;12.57;4.17;;;;;;;20.24;100.00;156529.63;5029445;28;20029;-73
2023/08/15 06:53:14;;;;;;;14.60;4.00;;;;;;;20.28;100.00;156540.09;5046765;28;20480;-71
2023/08/15 06:55:39;;;;;;;10.83;3.60;;;;;;;20.28;100.00;156540.09;5047051;28;20060;-70
2023/08/15 06:58:05;;;;;;;28.37;5.13;;;;;;;20.18;100.00;156514.00;5045345;28;20082;-71
2023/08/15 07:00:30;;;;;;;17.20;4.80;;;;;;;20.14;100.00;156503.53;5043995;28;20063;-71
2023/08/15 07:02:55;;;;;;;17.63;3.43;;;;;;;20.06;100.00;156482.66;5049160;28;20370;-70
2023/08/15 07:05:21;;;;;;;12.03;4.00;;;;;;;20.25;100.00;156533.56;5044852;28;20028;-69
2023/08/15 07:07:46;;;;;;;15.23;3.80;;;;;;;21.60;100.00;156884.69;5044387;28;20087;-70
2023/08/15 07:10:12;;;;;;;17.03;4.43;;;;;;;22.56;100.00;157136.84;5031613;28;20114;-72
2023/08/15 07:12:37;;;;;;;16.60;4.17;;;;;;;23.20;100.00;157302.88;5031800;28;20027;-70
2023/08/15 07:15:03;;;;;;;18.77;4.00;;;;;;;23.73;100.00;157441.44;5042738;28;20082;-70
2023/08/15 07:17:28;;;;;;;16.08;4.25;;;;;;;23.56;100.00;157398.31;5044850;28;20021;-70
2023/08/15 07:19:53;;;;;;;14.30;5.00;;;;;;;23.71;100.00;157436.22;5046948;28;20033;-70
2023/08/15 07:22:19;;;;;;;13.97;4.10;;;;;;;23.97;100.00;157504.28;5032007;28;20033;-70
2023/08/15 07:24:45;;;;;;;15.70;4.13;;;;;;;24.09;100.00;157535.66;5047882;28;20452;-70
2023/08/15 07:27:10;;;;;;;10.35;3.95;;;;;;;24.35;100.00;157603.69;5049048;28;20025;-70
2023/08/15 07:29:35;;;;;;;13.07;4.33;;;;;;;24.22;100.00;157569.69;5047628;28;20036;-70
2023/08/15 07:32:01;;;;;;;15.57;4.30;;;;;;;24.31;100.00;157593.22;5047198;28;20107;-70
2023/08/15 07:34:26;;;;;;;18.93;4.40;;;;;;;24.45;100.00;157631.19;5049461;28;20056;-70
2023/08/15 07:36:52;;;;;;;16.57;4.03;;;;;;;24.50;100.00;157644.22;5049087;28;20032;-70
2023/08/15 07:39:17;;;;;;;13.37;4.17;;;;;;;24.49;100.00;157640.34;5029435;28;20036;-70
2023/08/15 07:41:42;;;;;;;14.27;4.00;;;;;;;24.44;100.00;157627.25;5047429;28;20083;-70
2023/08/15 07:44:08;;;;;;;18.47;4.30;;;;;;;24.36;100.00;157606.28;5049571;28;20036;-70
2023/08/15 07:46:33;;;;;;;10.90;3.37;;;;;;;24.61;100.00;157671.78;5048305;28;20028;-70
2023/08/15 07:48:59;;;;;;;15.00;3.83;;;;;;;24.31;100.00;157593.22;5047265;28;20028;-70
2023/08/15 07:51:24;;;;;;;11.02;4.07;;;;;;;23.92;100.00;157492.53;5046004;28;20067;-69
2023/08/15 07:53:50;;;;;;;15.07;3.47;;;;;;;23.65;100.00;157420.53;5050038;28;20055;-70
2023/08/15 07:56:15;;;;;;;15.83;3.40;;;;;;;23.02;100.00;157257.06;5050294;28;20049;-69
2023/08/15 07:58:41;;;;;;;19.47;3.53;;;;;;;22.71;100.00;157174.72;5044406;28;20123;-70
2023/08/15 08:01:06;;;;;;;10.63;3.17;;;;;;;22.66;100.00;157162.97;5047132;28;20052;-72
2023/08/15 08:03:32;;;;;;;15.97;3.77;;;;;;;22.68;100.00;157166.91;5048285;28;20029;-72
2023/08/15 08:05:57;;;;;;;18.80;4.27;;;;;;;22.63;100.00;157155.09;5048583;28;20029;-71
2023/08/15 08:08:23;;;;;;;14.73;2.90;;;;;;;22.75;100.00;157185.19;5049382;28;20272;-70
2023/08/15 08:10:48;;;;;;;14.07;3.50;;;;;;;22.71;100.00;157174.72;5045403;28;20040;-72
2023/08/15 08:13:16;;;;;;;11.37;4.10;;;;;;;22.68;100.00;157168.19;5043318;28;20415;-72
2023/08/15 08:15:42;;;;;;;12.75;3.50;;;;;;;22.50;100.00;157121.16;5047161;28;20480;-72
2023/08/15 08:18:08;;;;;;;9.15;3.28;;;;;;;22.65;100.00;157160.38;5048037;28;20104;-72
2023/08/15 08:20:34;;;;;;;9.83;3.03;;;;;;;22.65;100.00;157159.03;5044603;28;20555;-71
2023/08/15 08:22:59;;;;;;;14.83;4.13;;;;;;;22.43;100.00;157102.84;5048763;28;20024;-72
2023/08/15 08:25:25;;;;;;;18.23;3.63;;;;;;;22.31;100.00;157070.16;5031490;28;20064;-71
2023/08/15 08:27:50;;;;;;;14.73;3.27;;;;;;;22.28;100.00;157063.63;5045644;28;20452;-71
2023/08/15 08:30:18;;;;;;;10.03;3.07;;;;;;;22.29;100.00;157066.25;5043460;28;20706;-72
2023/08/15 08:32:44;;;;;;;12.48;3.40;;;;;;;22.32;100.00;157072.78;5039210;28;20034;-71
2023/08/15 08:35:10;;;;;;;10.98;3.53;;;;;;;22.50;100.00;157121.16;5046294;28;20112;-72
2023/08/15 08:37:37;;;;;;;15.18;4.03;;;;;;;22.30;100.00;157068.84;5029129;28;20040;-71
2023/08/15 08:40:04;;;;;;;26.08;3.83;;;;;;;22.14;100.00;157025.75;5042397;28;20060;-70
2023/08/15 08:42:29;;;;;;;14.85;2.92;;;;;;;22.18;100.00;157036.19;5045440;28;20041;-70
2023/08/15 08:44:55;;;;;;;12.53;3.40;;;;;;;22.13;100.00;157023.09;5041265;28;20094;-70
2023/08/15 08:47:24;;;;;;;14.77;4.10;;;;;;;21.87;100.00;156956.50;5031601;28;20031;-71
2023/08/15 08:49:52;;;;;;;12.00;3.45;;;;;;;21.78;100.00;156931.72;5024456;28;20040;-71
2023/08/15 08:52:18;;;;;;;17.90;3.60;;;;;;;21.83;100.00;156946.06;5025361;28;20025;-71
2023/08/15 08:54:43;;;;;;;12.85;3.22;;;;;;;21.88;100.00;156957.84;5044833;28;20032;-72
2023/08/15 08:57:10;;;;;;;14.63;3.37;;;;;;;21.76;100.00;156926.50;5028246;28;20055;-71
2023/08/15 08:59:38;;;;;;;8.60;3.10;;;;;;;21.85;100.00;156949.97;5029520;28;20480;-71
2023/08/15 09:02:07;;;;;;;15.80;3.70;;;;;;;21.80;100.00;156936.91;5044755;28;20587;-71
2023/08/15 09:04:33;;;;;;;14.43;3.70;;;;;;;21.73;100.00;156918.66;5045422;28;20392;-70
2023/08/15 09:06:58;;;;;;;;;;;;;;;21.73;100.00;156918.66;5048523;28;20044;-71
2023/08/15 09:09:24;;;;;;;13.23;3.35;;;;;;;21.53;100.00;156867.69;5031790;28;19913;-71
2023/08/15 09:11:49;;;;;;;20.47;3.90;;;;;;;21.41;100.00;156835.03;5044008;28;20025;-70
2023/08/15 09:14:18;;;;;;;12.73;3.50;;;;;;;21.42;100.00;156837.66;5042149;28;20476;-70
2023/08/15 09:16:47;;;;;;;12.63;3.35;;;;;;;21.50;100.00;156858.56;5044525;28;20539;-70
2023/08/15 09:19:13;;;;;;;13.27;3.78;;;;;;;21.75;100.00;156925.19;5040653;28;20087;-70
2023/08/15 09:21:39;;;;;;;8.13;3.20;;;;;;;22.02;100.00;156995.69;5045269;28;20033;-69
2023/08/15 09:24:05;;;;;;;15.63;4.10;;;;;;;22.17;100.00;157034.91;5046124;28;20052;-70
2023/08/15 09:26:34;;;;;;;14.90;3.20;;;;;;;22.35;100.00;157080.63;5028839;28;20098;-71
2023/08/15 09:29:02;;;;;;;9.95;4.07;;;;;;;22.42;100.00;157098.91;5026744;28;20031;-71
2023/08/15 09:31:28;;;;;;;15.30;3.40;;;;;;;22.50;100.00;157119.84;5040859;28;20464;-70
2023/08/15 09:33:53;;;;;;;18.80;3.35;;;;;;;22.48;100.00;157114.63;5041780;28;20447;-69
2023/08/15 09:36:19;;;;;;;14.07;3.50;;;;;;;22.45;100.00;157106.75;5045123;28;20044;-70
2023/08/15 09:38:44;;;;;;;12.57;3.87;;;;;;;22.46;100.00;157110.69;5028524;28;20063;-70
2023/08/15 09:41:12;;;;;;;17.87;3.20;;;;;;;22.31;100.00;157071.44;5044755;28;20044;-69
2023/08/15 09:43:49;;;;;;;15.10;3.67;;;;;;;22.41;100.00;157096.28;5048277;28;20041;-69
2023/08/15 09:46:15;;;;;;;14.98;3.17;;;;;;;22.53;100.00;157127.69;5048678;28;20020;-72
2023/08/15 09:48:43;;;;;;;12.52;3.10;;;;;;;22.28;100.00;157063.63;5051854;28;20024;-70
2023/08/15 09:51:11;;;;;;;14.70;3.45;;;;;;;22.10;100.00;157015.31;5024685;28;20055;-70
2023/08/15 09:53:39;;;;;;;14.57;3.00;;;;;;;22.12;100.00;157020.50;5043887;28;20063;-69
2023/08/15 09:56:04;;;;;;;15.60;3.50;;;;;;;22.26;100.00;157057.09;5050778;28;20025;-70
2023/08/15 09:58:30;;;;;;;10.83;2.30;;;;;;;22.39;100.00;157091.03;5043380;28;20024;-69
2023/08/15 10:00:58;;;;;;;16.80;3.63;;;;;;;22.53;100.00;157129.03;5050888;28;20443;-70
2023/08/15 10:03:35;;;;;;;9.43;3.33;;;;;;;22.71;100.00;157176.03;5049983;28;20025;-70
2023/08/15 10:06:02;;;;;;;8.68;2.47;;;;;;;23.05;100.00;157263.63;5047673;28;20081;-71
2023/08/15 10:08:28;;;;;;;10.32;3.35;;;;;;;22.81;100.00;157202.19;5046863;28;20070;-72
2023/08/15 10:10:57;;;;;;;11.98;3.78;;;;;;;22.78;100.00;157194.31;5050854;28;20037;-70
2023/08/15 10:13:27;;;;;;;11.77;3.08;;;;;;;22.90;100.00;157224.41;5048082;28;20029;-70
2023/08/15 10:15:53;;;;;;;10.02;2.60;;;;;;;23.12;100.00;157283.22;5045418;28;20042;-71
2023/08/15 10:18:19;;;;;;;11.27;3.08;;;;;;;23.61;100.00;157411.38;5046487;28;20431;-70
2023/08/15 10:20:50;;;;;;;10.97;2.50;;;;;;;23.88;100.00;157480.66;5045696;28;20119;-70
2023/08/15 10:23:26;;;;;;;12.20;3.35;;;;;;;23.93;100.00;157493.81;5047474;28;20419;-69
2023/08/15 10:25:53;;;;;;;10.30;3.30;;;;;;;23.99;100.00;157509.50;5045559;28;20029;-69
2023/08/15 10:28:19;;;;;;;10.07;2.95;;;;;;;23.87;100.00;157479.38;5044431;28;20297;-70
2023/08/15 10:30:46;;;;;;;9.25;3.22;;;;;;;23.60;100.00;157407.44;5030939;28;20500;-69
2023/08/15 10:33:14;;;;;;;9.45;2.83;;;;;;;23.61;100.00;157411.38;5031757;28;20064;-69
2023/08/15 10:35:54;;;;;;;12.63;3.20;;;;;;;23.54;100.00;157391.78;5049110;28;20021;-69
2023/08/15 10:38:35;;;;;;;12.43;2.60;;;;;;;23.48;100.00;157377.38;5048540;28;20549;-70
2023/08/15 10:41:15;;;;;;;12.60;3.53;;;;;;;23.21;100.00;157306.78;5046144;28;20021;-70
2023/08/15 10:43:47;;;;;;;10.43;3.63;;;;;;;23.15;100.00;157289.75;5044130;28;20053;-71
2023/08/15 10:46:12;;;;;;;9.45;3.10;;;;;;;23.14;100.00;157287.09;5043453;28;20100;-69
2023/08/15 10:48:54;;;;;;;9.37;2.30;;;;;;;23.48;100.00;157376.09;5043744;28;20107;-69
2023/08/15 10:51:27;;;;;;;13.68;2.67;;;;;;;23.46;100.00;157370.81;5048250;28;20030;-70
2023/08/15 10:54:02;;;;;;;9.32;3.55;;;;;;;23.19;100.00;157300.22;5042293;28;20021;-69
2023/08/15 10:56:32;;;;;;;13.15;2.97;;;;;;;24.20;100.00;157564.44;5040026;28;20476;-70
2023/08/15 10:58:59;;;;;;;11.07;3.05;;;;;;;24.44;100.00;157627.25;5044313;28;20033;-69
2023/08/15 11:01:27;;;;;;;11.52;2.72;;;;;;;25.39;100.00;157877.31;5047585;28;20036;-69
2023/08/15 11:03:55;;;;;;;3.25;2.00;;;;;;;25.20;100.00;157826.22;5043568;28;20105;-69
2023/08/15 11:06:20;;;;;;;6.97;2.30;;;;;;;24.87;100.00;157741.13;5046776;28;20059;-69
2023/08/15 11:08:48;;;;;;;4.78;1.88;;;;;;;25.10;100.00;157800.03;5045102;28;20436;-69
2023/08/15 11:11:14;;;;;;;7.47;1.60;;;;;;;25.38;100.00;157873.38;5027820;28;20059;-69